createdAt,value
2022-08-08T00:01:06.867Z,1.50
2022-08-08T00:03:41.914Z,1.95
2022-08-08T00:06:17.165Z,1.33
2022-08-08T00:09:07.693Z,1.73
2022-08-08T00:11:46.602Z,1.58
2022-08-08T00:14:48.710Z,1.33
2022-08-08T00:17:23.156Z,1.42
2022-08-08T00:19:55.718Z,1.60
2022-08-08T00:22:28.876Z,1.85
2022-08-08T00:25:00.126Z,1.50
2022-08-08T00:27:34.728Z,1.40
2022-08-08T00:30:04.205Z,1.80
2022-08-08T00:32:36.510Z,1.58
2022-08-08T00:35:20.263Z,1.67
2022-08-08T00:38:01.448Z,1.75
2022-08-08T00:41:07.106Z,1.48
2022-08-08T00:43:40.105Z,1.80
2022-08-08T00:46:16.558Z,1.63
2022-08-08T00:48:59.405Z,1.73
2022-08-08T00:51:49.300Z,2.00
2022-08-08T00:54:37.260Z,1.90
2022-08-08T00:57:34.141Z,1.50
2022-08-08T01:00:08.529Z,1.50
2022-08-08T01:04:00.837Z,1.70
2022-08-08T01:06:02.279Z,1.50
2022-08-08T01:08:51.794Z,1.63
2022-08-08T01:11:40.254Z,1.60
2022-08-08T01:14:53.780Z,1.60
2022-08-08T01:17:52.067Z,1.70
2022-08-08T01:20:34.124Z,1.40
2022-08-08T01:24:03.084Z,1.77
2022-08-08T01:26:36.072Z,1.85
2022-08-08T01:29:24.141Z,1.70
2022-08-08T01:32:21.276Z,1.63
2022-08-08T01:34:57.941Z,1.55
2022-08-08T01:37:56.883Z,1.55
2022-08-08T01:40:28.828Z,1.58
2022-08-08T01:43:02.673Z,1.52
2022-08-08T01:45:50.353Z,1.73
2022-08-08T01:48:31.625Z,1.58
2022-08-08T01:51:30.072Z,1.95
2022-08-08T01:55:15.914Z,1.55
2022-08-08T01:56:52.452Z,2.03
2022-08-08T01:59:49.307Z,1.80
2022-08-08T02:02:30.705Z,1.80
2022-08-08T02:05:08.581Z,1.65
2022-08-08T02:07:49.871Z,1.80
2022-08-08T02:10:44.654Z,1.70
2022-08-08T02:13:52.319Z,1.80
2022-08-08T02:16:06.917Z,1.63
2022-08-08T02:18:37.605Z,1.52
2022-08-08T02:21:28.640Z,1.63
2022-08-08T02:24:00.779Z,1.67
2022-08-08T02:26:31.303Z,1.60
2022-08-08T02:29:18.615Z,1.90
2022-08-08T02:31:58.909Z,1.90
2022-08-08T02:34:38.393Z,1.25
2022-08-08T02:37:52.844Z,1.90
2022-08-08T02:40:28.141Z,1.75
2022-08-08T02:44:37.344Z,1.70
2022-08-08T02:46:15.221Z,1.98
2022-08-08T02:49:03.472Z,1.80
2022-08-08T02:51:59.605Z,2.20
2022-08-08T02:54:42.884Z,1.90
2022-08-08T02:57:25.799Z,2.10
2022-08-08T03:00:31.633Z,1.98
2022-08-08T03:05:01.177Z,1.80
2022-08-08T03:06:34.243Z,1.80
2022-08-08T03:09:13.481Z,1.80
2022-08-08T03:12:02.604Z,1.95
2022-08-08T03:16:00.784Z,2.05
2022-08-08T03:17:39.465Z,2.10
2022-08-08T03:20:10.574Z,1.88
2022-08-08T03:22:44.693Z,1.90
2022-08-08T03:25:17.766Z,2.03
2022-08-08T03:27:56.315Z,1.88
2022-08-08T03:30:24.879Z,2.00
2022-08-08T03:33:55.227Z,1.95
2022-08-08T03:35:58.541Z,2.25
2022-08-08T03:38:55.786Z,2.00
2022-08-08T03:42:12.143Z,2.08
2022-08-08T03:44:02.519Z,2.20
2022-08-08T03:46:32.727Z,1.92
2022-08-08T03:49:28.058Z,2.17
2022-08-08T03:51:52.965Z,1.83
2022-08-08T03:54:41.155Z,2.30
2022-08-08T03:58:33.830Z,2.10
2022-08-08T04:00:11.317Z,1.88
2022-08-08T04:02:51.888Z,2.10
2022-08-08T04:05:28.139Z,2.00
2022-08-08T04:07:56.828Z,2.20
2022-08-08T04:10:31.936Z,1.88
2022-08-08T04:13:00.385Z,2.13
2022-08-08T04:15:30.414Z,2.17
2022-08-08T04:18:05.854Z,2.10
2022-08-08T04:20:33.677Z,2.30
2022-08-08T04:23:06.960Z,2.30
2022-08-08T04:25:38.430Z,2.38
2022-08-08T04:28:36.482Z,1.98
2022-08-08T04:30:55.026Z,2.13
2022-08-08T04:33:22.943Z,2.05
2022-08-08T04:35:51.661Z,2.60
2022-08-08T04:38:21.757Z,2.15
2022-08-08T04:40:53.713Z,2.10
2022-08-08T04:43:22.007Z,2.85
2022-08-08T04:45:49.976Z,2.20
2022-08-08T04:48:21.893Z,2.60
2022-08-08T04:50:50.260Z,2.20
2022-08-08T04:54:36.323Z,2.30
2022-08-08T04:56:07.033Z,2.60
2022-08-08T04:58:34.562Z,2.20
2022-08-08T05:01:09.136Z,2.30
2022-08-08T05:04:11.481Z,2.35
2022-08-08T05:06:28.148Z,2.53
2022-08-08T05:09:02.762Z,2.40
2022-08-08T05:11:39.686Z,2.45
2022-08-08T05:14:08.278Z,2.30
2022-08-08T05:16:51.673Z,2.63
2022-08-08T05:20:09.883Z,2.70
2022-08-08T05:22:17.583Z,2.42
2022-08-08T05:24:55.184Z,2.15
2022-08-08T05:27:25.543Z,2.10
2022-08-08T05:29:53.007Z,2.30
2022-08-08T05:32:24.712Z,2.40
2022-08-08T05:34:59.366Z,2.28
2022-08-08T05:40:17.648Z,2.08
2022-08-08T05:42:52.964Z,2.50
2022-08-08T05:45:30.748Z,2.00
2022-08-08T05:48:08.120Z,2.45
2022-08-08T05:50:36.787Z,2.15
2022-08-08T05:53:54.321Z,2.33
2022-08-08T05:56:07.621Z,2.72
2022-08-08T05:58:57.132Z,2.00
2022-08-08T06:01:57.437Z,2.47
2022-08-08T06:04:23.505Z,2.80
2022-08-08T06:06:52.625Z,2.55
2022-08-08T06:10:00.532Z,2.30
2022-08-08T06:12:11.096Z,2.55
2022-08-08T06:14:47.813Z,2.53
2022-08-08T06:17:19.484Z,2.20
2022-08-08T06:19:48.727Z,2.35
2022-08-08T06:22:32.477Z,2.10
2022-08-08T06:25:00.832Z,2.28
2022-08-08T06:27:33.441Z,2.60
2022-08-08T06:30:03.783Z,2.10
2022-08-08T06:32:31.962Z,3.25
2022-08-08T06:36:04.598Z,2.22
2022-08-08T06:37:51.011Z,2.17
2022-08-08T06:40:25.868Z,2.38
2022-08-08T06:42:55.477Z,2.33
2022-08-08T06:45:25.324Z,2.50
2022-08-08T06:48:01.483Z,2.35
2022-08-08T06:50:31.996Z,2.20
2022-08-08T06:53:01.565Z,2.00
2022-08-08T06:55:41.795Z,2.40
2022-08-08T06:58:09.565Z,2.13
2022-08-08T07:00:40.843Z,1.92
2022-08-08T07:03:19.365Z,2.00
2022-08-08T07:06:01.574Z,2.20
2022-08-08T07:08:30.992Z,2.20
2022-08-08T07:11:00.814Z,2.05
2022-08-08T07:13:32.579Z,1.95
2022-08-08T07:16:12.090Z,1.80
2022-08-08T07:18:44.075Z,1.75
2022-08-08T07:21:19.091Z,2.00
2022-08-08T07:24:01.080Z,1.88
2022-08-08T07:26:35.192Z,1.77
2022-08-08T07:29:05.664Z,2.13
2022-08-08T07:31:37.351Z,2.25
2022-08-08T07:34:09.324Z,2.33
2022-08-08T07:36:48.155Z,1.98
2022-08-08T07:39:18.918Z,2.30
2022-08-08T07:42:04.477Z,1.98
2022-08-08T07:44:37.792Z,1.85
2022-08-08T07:47:09.840Z,1.70
2022-08-08T07:49:40.000Z,1.80
2022-08-08T07:52:08.751Z,2.03
2022-08-08T07:54:44.184Z,2.20
2022-08-08T07:57:17.524Z,1.42
2022-08-08T07:59:52.025Z,1.70
2022-08-08T08:02:36.387Z,2.03
2022-08-08T08:05:14.357Z,1.98
2022-08-08T08:07:45.802Z,2.00
2022-08-08T08:10:16.138Z,2.00
2022-08-08T08:12:48.013Z,1.92
2022-08-08T08:15:21.520Z,1.80
2022-08-08T08:17:56.068Z,1.85
2022-08-08T08:20:30.239Z,1.77
2022-08-08T08:22:58.040Z,1.92
2022-08-08T08:25:42.519Z,1.67
2022-08-08T08:28:16.831Z,1.70
2022-08-08T08:30:45.730Z,1.80
2022-08-08T08:33:14.931Z,1.98
2022-08-08T08:36:19.491Z,1.52
2022-08-08T08:38:30.534Z,1.73
2022-08-08T08:40:59.272Z,1.70
2022-08-08T08:43:29.129Z,1.80
2022-08-08T08:45:57.715Z,1.75
2022-08-08T08:48:26.797Z,1.80
2022-08-08T08:50:57.452Z,1.70
2022-08-08T08:53:27.512Z,1.60
2022-08-08T08:56:15.049Z,1.30
2022-08-08T08:58:51.953Z,1.45
2022-08-08T09:01:20.555Z,1.70
2022-08-08T09:03:51.506Z,1.60
2022-08-08T09:06:28.410Z,1.52
2022-08-08T09:09:02.476Z,1.40
2022-08-08T09:11:33.318Z,1.45
2022-08-08T09:14:01.803Z,2.00
2022-08-08T09:16:29.382Z,1.58
2022-08-08T09:19:01.764Z,1.70
2022-08-08T09:22:01.008Z,1.60
2022-08-08T09:24:19.683Z,1.60
2022-08-08T09:26:51.772Z,1.63
2022-08-08T09:29:22.283Z,1.13
2022-08-08T09:31:57.591Z,1.35
2022-08-08T09:34:34.210Z,1.38
2022-08-08T09:37:57.906Z,1.13
2022-08-08T09:39:53.838Z,1.30
2022-08-08T09:42:26.051Z,1.23
2022-08-08T09:45:03.900Z,1.40
2022-08-08T09:48:04.221Z,1.45
2022-08-08T09:50:23.424Z,1.42
2022-08-08T09:52:56.268Z,1.52
2022-08-08T09:56:02.787Z,1.33
2022-08-08T09:58:20.318Z,1.52
2022-08-08T10:00:59.012Z,1.20
2022-08-08T10:03:29.439Z,1.10
2022-08-08T10:06:00.933Z,1.48
2022-08-08T10:08:32.407Z,1.15
2022-08-08T10:11:00.372Z,1.30
2022-08-08T10:13:35.473Z,1.25
2022-08-08T10:16:04.216Z,1.60
2022-08-08T10:18:33.755Z,1.15
2022-08-08T10:21:22.850Z,1.27
2022-08-08T10:23:57.764Z,1.30
2022-08-08T10:26:59.493Z,1.40
2022-08-08T10:29:21.136Z,1.25
2022-08-08T10:32:15.522Z,1.30
2022-08-08T10:34:51.059Z,1.52
2022-08-08T10:37:26.097Z,1.65
2022-08-08T10:39:55.797Z,1.20
2022-08-08T10:42:27.153Z,1.20
2022-08-08T10:45:00.973Z,1.40
2022-08-08T10:47:30.601Z,1.30
2022-08-08T10:50:11.019Z,1.10
2022-08-08T10:52:44.980Z,1.10
2022-08-08T10:55:15.630Z,1.30
2022-08-08T10:58:02.599Z,1.50
2022-08-08T11:00:39.255Z,1.50
2022-08-08T11:05:45.398Z,1.35
2022-08-08T11:08:38.804Z,1.02
2022-08-08T11:11:32.884Z,1.55
2022-08-08T11:14:00.996Z,1.35
2022-08-08T11:16:33.460Z,1.52
2022-08-08T11:19:02.799Z,1.23
2022-08-08T11:21:35.234Z,1.55
2022-08-08T11:24:06.689Z,1.27
2022-08-08T11:26:38.362Z,1.40
2022-08-08T11:29:29.377Z,1.60
2022-08-08T11:32:14.132Z,1.30
2022-08-08T11:34:58.934Z,1.30
2022-08-08T11:38:36.201Z,1.30
2022-08-08T11:40:26.694Z,1.63
2022-08-08T11:42:55.406Z,1.40
2022-08-08T11:45:23.654Z,1.45
2022-08-08T11:48:02.385Z,1.65
2022-08-08T11:50:33.956Z,1.30
2022-08-08T11:53:06.048Z,1.52
2022-08-08T11:55:36.480Z,1.38
2022-08-08T11:58:14.225Z,1.40
2022-08-08T12:00:44.595Z,1.42
2022-08-08T12:03:16.897Z,1.55
2022-08-08T12:05:49.276Z,1.35
2022-08-08T12:08:17.216Z,1.40
2022-08-08T12:10:49.786Z,1.45
2022-08-08T12:13:33.572Z,1.45
2022-08-08T12:16:09.944Z,1.50
2022-08-08T12:18:47.241Z,1.50
2022-08-08T12:21:25.810Z,1.60
2022-08-08T12:24:11.495Z,1.75
2022-08-08T12:26:41.854Z,1.52
2022-08-08T12:29:25.991Z,1.42
2022-08-08T12:32:09.788Z,1.45
2022-08-08T12:34:45.695Z,1.30
2022-08-08T12:37:20.411Z,1.55
2022-08-08T12:39:59.963Z,1.50
2022-08-08T12:42:33.704Z,1.30
2022-08-08T12:45:53.456Z,1.40
2022-08-08T12:48:09.808Z,1.40
2022-08-08T12:50:46.844Z,1.48
2022-08-08T12:53:28.388Z,1.50
2022-08-08T12:56:19.116Z,1.35
2022-08-08T12:58:54.184Z,1.65
2022-08-08T13:01:29.504Z,1.58
2022-08-08T13:04:13.016Z,1.42
2022-08-08T13:06:53.336Z,1.73
2022-08-08T13:09:29.800Z,1.45
2022-08-08T13:12:27.445Z,1.42
2022-08-08T13:14:52.951Z,1.30
2022-08-08T13:17:54.141Z,1.42
2022-08-08T13:20:13.887Z,1.45
2022-08-08T13:22:45.231Z,1.58
2022-08-08T13:25:16.559Z,1.27
2022-08-08T13:27:44.619Z,1.52
2022-08-08T13:30:21.146Z,1.40
2022-08-08T13:32:55.889Z,1.60
2022-08-08T13:35:39.087Z,1.80
2022-08-08T13:38:13.502Z,1.65
2022-08-08T13:40:44.695Z,1.50
2022-08-08T13:43:12.853Z,1.70
2022-08-08T13:45:41.918Z,1.65
2022-08-08T13:48:12.976Z,1.80
2022-08-08T13:50:50.746Z,1.85
2022-08-08T13:53:31.565Z,1.60
2022-08-08T13:56:05.831Z,1.50
2022-08-08T13:58:34.502Z,1.95
2022-08-08T14:01:13.647Z,1.40
2022-08-08T14:03:54.171Z,1.50
2022-08-08T14:06:34.217Z,1.20
2022-08-08T14:09:24.669Z,1.38
2022-08-08T14:11:51.085Z,1.65
2022-08-08T14:14:21.093Z,1.55
2022-08-08T14:16:57.424Z,1.60
2022-08-08T14:19:57.857Z,1.65
2022-08-08T14:22:21.577Z,1.70
2022-08-08T14:24:53.981Z,1.55
2022-08-08T14:27:27.147Z,1.48
2022-08-08T14:29:57.887Z,1.42
2022-08-08T14:32:27.177Z,1.35
2022-08-08T14:34:58.310Z,1.45
2022-08-08T14:37:28.190Z,1.40
2022-08-08T14:40:12.945Z,1.40
2022-08-08T14:42:55.177Z,1.50
2022-08-08T14:45:29.217Z,1.42
2022-08-08T14:50:41.335Z,1.40
2022-08-08T14:53:13.531Z,1.30
2022-08-08T14:55:43.049Z,1.70
2022-08-08T14:58:16.727Z,1.58
2022-08-08T15:00:47.712Z,1.52
2022-08-08T15:03:16.974Z,1.77
2022-08-08T15:05:54.775Z,1.40
2022-08-08T15:08:34.392Z,1.15
2022-08-08T15:11:04.388Z,1.30
2022-08-08T15:13:40.094Z,1.48
2022-08-08T15:16:12.067Z,1.48
2022-08-08T15:18:44.244Z,1.50
2022-08-08T15:21:19.191Z,1.52
2022-08-08T15:23:51.407Z,1.33
2022-08-08T15:26:19.632Z,1.75
2022-08-08T15:28:53.339Z,1.85
2022-08-08T15:31:56.167Z,1.33
2022-08-08T15:34:28.888Z,1.60
2022-08-08T15:36:58.904Z,1.80
2022-08-08T15:39:27.554Z,1.60
2022-08-08T15:41:55.879Z,1.58
2022-08-08T15:44:23.387Z,1.40
2022-08-08T15:46:51.256Z,1.50
2022-08-08T15:49:20.635Z,1.27
2022-08-08T15:51:50.022Z,1.60
2022-08-08T15:54:38.123Z,1.20
2022-08-08T15:57:07.607Z,1.55
2022-08-08T16:00:05.501Z,1.48
2022-08-08T16:02:31.496Z,1.50
2022-08-08T16:04:59.726Z,1.42
2022-08-08T16:07:35.869Z,1.40
2022-08-08T16:13:11.187Z,1.40
2022-08-08T16:13:30.016Z,1.10
2022-08-08T16:15:58.684Z,1.40
2022-08-08T16:18:27.633Z,1.35
2022-08-08T16:21:00.478Z,1.40
2022-08-08T16:23:28.503Z,1.50
2022-08-08T16:26:04.023Z,1.50
2022-08-08T16:28:35.592Z,1.33
2022-08-08T16:31:07.543Z,1.33
2022-08-08T16:33:37.984Z,1.50
2022-08-08T16:36:08.761Z,1.63
2022-08-08T16:38:40.442Z,1.50
2022-08-08T16:41:20.525Z,1.63
2022-08-08T16:43:51.549Z,1.58
2022-08-08T16:46:37.474Z,1.50
2022-08-08T16:49:07.948Z,1.65
2022-08-08T16:55:02.515Z,1.80
2022-08-08T16:55:04.079Z,1.52
2022-08-08T16:57:27.955Z,1.70
2022-08-08T17:00:01.792Z,1.70
2022-08-08T17:02:38.727Z,1.75
2022-08-08T17:05:07.896Z,1.55
2022-08-08T17:07:37.516Z,1.90
2022-08-08T17:10:06.817Z,1.55
2022-08-08T17:12:36.607Z,1.67
2022-08-08T17:15:17.970Z,1.70
2022-08-08T17:18:03.865Z,1.65
2022-08-08T17:20:32.627Z,1.40
2022-08-08T17:23:24.032Z,2.22
2022-08-08T17:25:53.649Z,2.45
2022-08-08T17:28:34.682Z,1.67
2022-08-08T17:31:43.210Z,1.50
2022-08-08T17:34:48.095Z,1.80
2022-08-08T17:36:38.503Z,1.70
2022-08-08T17:40:02.981Z,1.45
2022-08-08T17:42:13.729Z,1.70
2022-08-08T17:44:44.482Z,1.77
2022-08-08T17:47:24.198Z,1.85
2022-08-08T17:50:00.684Z,1.60
2022-08-08T17:52:30.174Z,1.58
2022-08-08T17:54:58.365Z,1.73
2022-08-08T17:57:28.914Z,1.70
2022-08-08T18:00:05.060Z,1.75
2022-08-08T18:02:44.618Z,1.80
2022-08-08T18:05:28.493Z,1.98
2022-08-08T18:08:37.536Z,1.70
2022-08-08T18:11:03.575Z,1.50
2022-08-08T18:13:35.069Z,1.73
2022-08-08T18:16:12.673Z,1.70
2022-08-08T18:18:45.498Z,1.80
2022-08-08T18:21:24.911Z,1.80
2022-08-08T18:24:02.859Z,1.75
2022-08-08T18:26:30.419Z,2.38
2022-08-08T18:28:57.912Z,2.30
2022-08-08T18:31:27.778Z,1.73
2022-08-08T18:34:25.791Z,2.20
2022-08-08T18:36:44.585Z,1.75
2022-08-08T18:39:16.469Z,2.97
2022-08-08T18:41:59.744Z,2.22
2022-08-08T18:44:34.808Z,1.98
2022-08-08T18:47:05.258Z,2.05
2022-08-08T18:49:40.996Z,1.77
2022-08-08T18:52:22.739Z,1.92
2022-08-08T18:55:00.920Z,1.88
2022-08-08T18:57:42.093Z,2.42
2022-08-08T19:00:16.407Z,2.22
2022-08-08T19:02:56.188Z,1.85
2022-08-08T19:05:30.468Z,1.85
2022-08-08T19:08:02.333Z,1.88
2022-08-08T19:10:30.595Z,1.77
2022-08-08T19:12:58.913Z,2.00
2022-08-08T19:15:34.373Z,1.83
2022-08-08T19:18:32.133Z,2.30
2022-08-08T19:20:53.692Z,2.08
2022-08-08T19:23:21.883Z,1.90
2022-08-08T19:26:20.127Z,2.03
2022-08-08T19:28:37.149Z,1.92
2022-08-08T19:31:08.996Z,2.70
2022-08-08T19:33:52.141Z,2.40
2022-08-08T19:36:28.149Z,2.20
2022-08-08T19:38:55.902Z,2.15
2022-08-08T19:41:27.370Z,2.00
2022-08-08T19:44:03.454Z,1.98
2022-08-08T19:46:33.714Z,2.20
2022-08-08T19:49:03.232Z,1.83
2022-08-08T19:51:34.637Z,2.30
2022-08-08T19:54:07.265Z,2.00
2022-08-08T19:56:40.063Z,1.90
2022-08-08T19:59:08.529Z,2.20
2022-08-08T20:02:01.421Z,2.13
2022-08-08T20:04:25.717Z,2.00
2022-08-08T20:06:53.868Z,2.10
2022-08-08T20:09:24.501Z,2.00
2022-08-08T20:11:52.531Z,2.28
2022-08-08T20:14:35.538Z,2.00
2022-08-08T20:19:34.574Z,2.42
2022-08-08T20:22:13.150Z,1.90
2022-08-08T20:24:48.139Z,2.20
2022-08-08T20:27:33.030Z,2.22
2022-08-08T20:30:03.211Z,2.00
2022-08-08T20:32:31.912Z,2.45
2022-08-08T20:35:02.179Z,2.17
2022-08-08T20:40:16.582Z,2.05
2022-08-08T20:42:50.500Z,2.15
2022-08-08T20:45:54.726Z,2.35
2022-08-08T20:48:10.680Z,2.00
2022-08-08T20:50:39.861Z,2.28
2022-08-08T20:53:16.516Z,2.10
2022-08-08T20:55:54.933Z,2.10
2022-08-08T20:58:23.279Z,1.90
2022-08-08T21:00:51.087Z,2.50
2022-08-08T21:03:18.606Z,2.17
2022-08-08T21:05:49.185Z,2.20
2022-08-08T21:08:36.017Z,2.30
2022-08-08T21:11:14.291Z,1.77
2022-08-08T21:13:43.815Z,2.30
2022-08-08T21:16:20.893Z,2.28
2022-08-08T21:18:57.499Z,1.80
2022-08-08T21:21:39.309Z,2.03
2022-08-08T21:24:22.405Z,2.15
2022-08-08T21:26:55.552Z,2.10
2022-08-08T21:30:03.869Z,2.10
2022-08-08T21:32:14.108Z,2.20
2022-08-08T21:34:56.782Z,2.05
2022-08-08T21:37:54.093Z,1.90
2022-08-08T21:40:31.087Z,2.10
2022-08-08T21:42:59.280Z,2.00
2022-08-08T21:45:44.206Z,2.00
2022-08-08T21:48:20.189Z,2.00
2022-08-08T21:50:50.624Z,2.35
2022-08-08T21:54:36.377Z,2.00
2022-08-08T21:56:28.077Z,1.90
2022-08-08T21:58:55.835Z,2.13
2022-08-08T22:01:28.115Z,1.92
2022-08-08T22:04:07.204Z,1.70
2022-08-08T22:06:39.725Z,2.25
2022-08-08T22:09:09.915Z,2.72
2022-08-08T22:11:58.855Z,1.90
2022-08-08T22:14:27.006Z,2.08
2022-08-08T22:16:56.431Z,2.42
2022-08-08T22:19:29.481Z,2.20
2022-08-08T22:21:57.287Z,2.10
2022-08-08T22:24:28.363Z,1.90
2022-08-08T22:27:01.278Z,2.15
2022-08-08T22:29:59.056Z,1.92
2022-08-08T22:32:19.038Z,1.80
2022-08-08T22:34:50.638Z,1.80
2022-08-08T22:37:48.756Z,2.30
2022-08-08T22:40:12.058Z,2.08
2022-08-08T22:42:45.647Z,1.98
2022-08-08T22:45:15.821Z,1.73
2022-08-08T22:47:48.946Z,1.83
2022-08-08T22:50:26.765Z,2.83
2022-08-08T22:54:15.845Z,1.73
2022-08-08T22:55:57.792Z,2.08
2022-08-08T22:58:28.765Z,2.10
2022-08-08T23:00:58.177Z,2.15
2022-08-08T23:03:34.481Z,2.05
2022-08-08T23:06:15.895Z,2.00
2022-08-08T23:08:44.602Z,2.00
2022-08-08T23:11:58.140Z,1.90
2022-08-08T23:14:13.060Z,1.90
2022-08-08T23:16:43.859Z,1.92
2022-08-08T23:19:11.826Z,1.90
2022-08-08T23:21:39.334Z,1.80
2022-08-08T23:24:07.497Z,1.90
2022-08-08T23:26:38.038Z,1.85
2022-08-08T23:29:06.343Z,1.92
2022-08-08T23:31:41.776Z,2.05
2022-08-08T23:34:16.697Z,2.20
2022-08-08T23:36:46.958Z,1.88
2022-08-08T23:39:14.701Z,2.10
2022-08-08T23:41:46.868Z,1.60
2022-08-08T23:44:18.801Z,2.03
2022-08-08T23:49:01.451Z,1.90
2022-08-08T23:49:34.102Z,2.05
2022-08-08T23:52:04.430Z,2.30
2022-08-08T23:54:41.430Z,2.45
2022-08-08T23:57:26.558Z,1.95
